sensor_id;sensor_type;location;lat;lon;timestamp;P1;durP1;ratioP1;P2;durP2;ratioP2
56181;SDS011;51963;46.052;14.544;2022-10-31T00:00:56;39.17;;;17.73;;
56181;SDS011;51963;46.052;14.544;2022-10-31T00:03:22;38.95;;;16.73;;
56181;SDS011;51963;46.052;14.544;2022-10-31T00:05:48;58.35;;;17.00;;
56181;SDS011;51963;46.052;14.544;2022-10-31T00:08:16;61.47;;;19.45;;
56181;SDS011;51963;46.052;14.544;2022-10-31T00:10:42;41.55;;;17.67;;
56181;SDS011;51963;46.052;14.544;2022-10-31T00:13:09;41.20;;;17.80;;
56181;SDS011;51963;46.052;14.544;2022-10-31T00:15:37;41.17;;;17.33;;
56181;SDS011;51963;46.052;14.544;2022-10-31T00:18:04;32.45;;;15.98;;
56181;SDS011;51963;46.052;14.544;2022-10-31T00:20:31;32.45;;;16.90;;
56181;SDS011;51963;46.052;14.544;2022-10-31T00:22:58;47.65;;;17.50;;
56181;SDS011;51963;46.052;14.544;2022-10-31T00:25:24;75.30;;;18.98;;
56181;SDS011;51963;46.052;14.544;2022-10-31T00:27:50;44.83;;;17.73;;
56181;SDS011;51963;46.052;14.544;2022-10-31T00:30:16;61.42;;;18.15;;
56181;SDS011;51963;46.052;14.544;2022-10-31T00:32:42;56.88;;;20.75;;
56181;SDS011;51963;46.052;14.544;2022-10-31T00:35:08;68.63;;;21.98;;
56181;SDS011;51963;46.052;14.544;2022-10-31T00:37:34;112.78;;;24.52;;
56181;SDS011;51963;46.052;14.544;2022-10-31T00:39:59;50.95;;;22.40;;
56181;SDS011;51963;46.052;14.544;2022-10-31T00:42:25;74.18;;;25.83;;
56181;SDS011;51963;46.052;14.544;2022-10-31T00:44:51;80.65;;;26.92;;
56181;SDS011;51963;46.052;14.544;2022-10-31T00:47:16;64.32;;;24.27;;
56181;SDS011;51963;46.052;14.544;2022-10-31T00:49:44;68.23;;;24.47;;
56181;SDS011;51963;46.052;14.544;2022-10-31T00:52:09;62.22;;;23.52;;
56181;SDS011;51963;46.052;14.544;2022-10-31T00:54:36;54.72;;;22.05;;
56181;SDS011;51963;46.052;14.544;2022-10-31T00:57:02;61.55;;;23.58;;
56181;SDS011;51963;46.052;14.544;2022-10-31T00:59:28;66.43;;;25.05;;
56181;SDS011;51963;46.052;14.544;2022-10-31T01:01:53;64.47;;;23.90;;
56181;SDS011;51963;46.052;14.544;2022-10-31T01:04:20;56.10;;;24.58;;
56181;SDS011;51963;46.052;14.544;2022-10-31T01:06:46;61.90;;;24.42;;
56181;SDS011;51963;46.052;14.544;2022-10-31T01:09:11;59.08;;;23.85;;
56181;SDS011;51963;46.052;14.544;2022-10-31T01:11:38;63.22;;;24.42;;
56181;SDS011;51963;46.052;14.544;2022-10-31T01:14:06;55.60;;;23.38;;
56181;SDS011;51963;46.052;14.544;2022-10-31T01:16:32;58.10;;;23.77;;
56181;SDS011;51963;46.052;14.544;2022-10-31T01:18:57;50.60;;;22.92;;
56181;SDS011;51963;46.052;14.544;2022-10-31T01:23:52;37.47;;;18.75;;
56181;SDS011;51963;46.052;14.544;2022-10-31T01:28:49;40.45;;;19.30;;
56181;SDS011;51963;46.052;14.544;2022-10-31T01:31:17;41.90;;;19.08;;
56181;SDS011;51963;46.052;14.544;2022-10-31T01:33:44;40.40;;;19.42;;
56181;SDS011;51963;46.052;14.544;2022-10-31T01:36:23;34.50;;;17.13;;
56181;SDS011;51963;46.052;14.544;2022-10-31T01:38:57;32.97;;;16.75;;
56181;SDS011;51963;46.052;14.544;2022-10-31T01:41:27;51.92;;;17.50;;
56181;SDS011;51963;46.052;14.544;2022-10-31T01:43:56;36.80;;;16.42;;
56181;SDS011;51963;46.052;14.544;2022-10-31T01:48:57;32.92;;;16.85;;
56181;SDS011;51963;46.052;14.544;2022-10-31T01:53:53;53.80;;;15.80;;
56181;SDS011;51963;46.052;14.544;2022-10-31T01:56:23;28.20;;;15.27;;
56181;SDS011;51963;46.052;14.544;2022-10-31T01:58:49;35.75;;;15.27;;
56181;SDS011;51963;46.052;14.544;2022-10-31T02:01:16;25.20;;;14.98;;
56181;SDS011;51963;46.052;14.544;2022-10-31T02:03:43;36.67;;;14.88;;
56181;SDS011;51963;46.052;14.544;2022-10-31T02:06:37;24.88;;;14.25;;
56181;SDS011;51963;46.052;14.544;2022-10-31T02:09:21;40.58;;;14.52;;
56181;SDS011;51963;46.052;14.544;2022-10-31T02:11:49;24.98;;;14.10;;
56181;SDS011;51963;46.052;14.544;2022-10-31T02:14:17;26.67;;;14.25;;
56181;SDS011;51963;46.052;14.544;2022-10-31T02:16:44;27.17;;;14.38;;
56181;SDS011;51963;46.052;14.544;2022-10-31T02:19:10;29.35;;;14.48;;
56181;SDS011;51963;46.052;14.544;2022-10-31T02:21:43;30.75;;;15.52;;
56181;SDS011;51963;46.052;14.544;2022-10-31T02:35:06;33.00;;;15.18;;
56181;SDS011;51963;46.052;14.544;2022-10-31T02:41:04;65.03;;;16.55;;
56181;SDS011;51963;46.052;14.544;2022-10-31T02:43:46;21.73;;;13.13;;
56181;SDS011;51963;46.052;14.544;2022-10-31T02:46:39;25.00;;;14.27;;
56181;SDS011;51963;46.052;14.544;2022-10-31T02:49:26;35.45;;;14.40;;
56181;SDS011;51963;46.052;14.544;2022-10-31T02:51:52;48.42;;;15.27;;
56181;SDS011;51963;46.052;14.544;2022-10-31T02:54:18;23.30;;;13.93;;
56181;SDS011;51963;46.052;14.544;2022-10-31T02:56:52;26.67;;;13.32;;
56181;SDS011;51963;46.052;14.544;2022-10-31T02:59:30;23.63;;;13.57;;
56181;SDS011;51963;46.052;14.544;2022-10-31T03:04:45;24.30;;;13.30;;
56181;SDS011;51963;46.052;14.544;2022-10-31T03:11:05;24.10;;;13.77;;
56181;SDS011;51963;46.052;14.544;2022-10-31T03:13:32;58.65;;;15.02;;
56181;SDS011;51963;46.052;14.544;2022-10-31T03:16:07;33.40;;;12.75;;
56181;SDS011;51963;46.052;14.544;2022-10-31T03:18:39;37.95;;;13.02;;
56181;SDS011;51963;46.052;14.544;2022-10-31T03:21:13;23.95;;;12.98;;
56181;SDS011;51963;46.052;14.544;2022-10-31T03:23:43;30.98;;;14.23;;
56181;SDS011;51963;46.052;14.544;2022-10-31T03:26:18;30.48;;;14.52;;
56181;SDS011;51963;46.052;14.544;2022-10-31T03:28:49;26.50;;;14.52;;
56181;SDS011;51963;46.052;14.544;2022-10-31T03:31:19;33.78;;;16.58;;
56181;SDS011;51963;46.052;14.544;2022-10-31T03:33:50;53.33;;;15.20;;
56181;SDS011;51963;46.052;14.544;2022-10-31T03:36:17;23.88;;;12.93;;
56181;SDS011;51963;46.052;14.544;2022-10-31T03:38:44;31.02;;;13.48;;
56181;SDS011;51963;46.052;14.544;2022-10-31T03:41:17;26.00;;;14.02;;
56181;SDS011;51963;46.052;14.544;2022-10-31T03:44:11;22.00;;;13.32;;
56181;SDS011;51963;46.052;14.544;2022-10-31T03:46:41;50.45;;;14.40;;
56181;SDS011;51963;46.052;14.544;2022-10-31T03:49:09;26.13;;;14.02;;
56181;SDS011;51963;46.052;14.544;2022-10-31T03:51:44;42.40;;;16.05;;
56181;SDS011;51963;46.052;14.544;2022-10-31T03:54:18;34.78;;;15.38;;
56181;SDS011;51963;46.052;14.544;2022-10-31T03:56:55;49.33;;;15.93;;
56181;SDS011;51963;46.052;14.544;2022-10-31T03:59:28;52.10;;;17.58;;
56181;SDS011;51963;46.052;14.544;2022-10-31T04:02:02;91.25;;;26.23;;
56181;SDS011;51963;46.052;14.544;2022-10-31T04:04:36;59.03;;;27.95;;
56181;SDS011;51963;46.052;14.544;2022-10-31T04:07:04;54.88;;;22.27;;
56181;SDS011;51963;46.052;14.544;2022-10-31T04:09:34;59.30;;;23.63;;
56181;SDS011;51963;46.052;14.544;2022-10-31T04:12:03;60.53;;;23.90;;
56181;SDS011;51963;46.052;14.544;2022-10-31T04:14:48;56.92;;;23.98;;
56181;SDS011;51963;46.052;14.544;2022-10-31T04:17:16;59.92;;;24.52;;
56181;SDS011;51963;46.052;14.544;2022-10-31T04:19:44;63.45;;;25.52;;
56181;SDS011;51963;46.052;14.544;2022-10-31T04:22:10;65.65;;;25.50;;
56181;SDS011;51963;46.052;14.544;2022-10-31T04:24:37;64.68;;;26.38;;
56181;SDS011;51963;46.052;14.544;2022-10-31T04:27:04;62.42;;;26.55;;
56181;SDS011;51963;46.052;14.544;2022-10-31T04:29:30;62.72;;;27.33;;
56181;SDS011;51963;46.052;14.544;2022-10-31T04:31:56;61.53;;;27.38;;
56181;SDS011;51963;46.052;14.544;2022-10-31T04:34:22;64.93;;;26.95;;
56181;SDS011;51963;46.052;14.544;2022-10-31T04:36:50;54.27;;;23.93;;
56181;SDS011;51963;46.052;14.544;2022-10-31T04:39:16;85.43;;;27.23;;
56181;SDS011;51963;46.052;14.544;2022-10-31T04:41:52;64.82;;;27.55;;
56181;SDS011;51963;46.052;14.544;2022-10-31T04:44:18;68.75;;;29.65;;
56181;SDS011;51963;46.052;14.544;2022-10-31T04:46:48;59.28;;;28.23;;
56181;SDS011;51963;46.052;14.544;2022-10-31T04:49:13;153.73;;;29.45;;
56181;SDS011;51963;46.052;14.544;2022-10-31T04:51:39;85.30;;;26.60;;
56181;SDS011;51963;46.052;14.544;2022-10-31T04:54:07;112.43;;;30.90;;
56181;SDS011;51963;46.052;14.544;2022-10-31T04:56:38;144.43;;;30.65;;
56181;SDS011;51963;46.052;14.544;2022-10-31T04:59:10;128.68;;;32.47;;
56181;SDS011;51963;46.052;14.544;2022-10-31T05:01:47;109.90;;;29.85;;
56181;SDS011;51963;46.052;14.544;2022-10-31T05:04:12;130.27;;;33.28;;
56181;SDS011;51963;46.052;14.544;2022-10-31T05:06:38;102.68;;;32.95;;
56181;SDS011;51963;46.052;14.544;2022-10-31T05:09:04;84.07;;;30.63;;
56181;SDS011;51963;46.052;14.544;2022-10-31T05:11:29;51.22;;;20.13;;
56181;SDS011;51963;46.052;14.544;2022-10-31T05:14:04;39.00;;;17.45;;
56181;SDS011;51963;46.052;14.544;2022-10-31T05:19:50;26.75;;;14.20;;
56181;SDS011;51963;46.052;14.544;2022-10-31T05:25:16;30.95;;;13.88;;
56181;SDS011;51963;46.052;14.544;2022-10-31T05:27:43;27.40;;;14.87;;
56181;SDS011;51963;46.052;14.544;2022-10-31T05:30:12;21.67;;;13.43;;
56181;SDS011;51963;46.052;14.544;2022-10-31T05:32:40;26.38;;;14.25;;
56181;SDS011;51963;46.052;14.544;2022-10-31T05:35:29;34.70;;;17.17;;
56181;SDS011;51963;46.052;14.544;2022-10-31T05:38:15;60.15;;;24.00;;
56181;SDS011;51963;46.052;14.544;2022-10-31T05:40:42;46.72;;;21.80;;
56181;SDS011;51963;46.052;14.544;2022-10-31T05:43:08;51.47;;;22.70;;
56181;SDS011;51963;46.052;14.544;2022-10-31T05:45:34;48.97;;;23.83;;
56181;SDS011;51963;46.052;14.544;2022-10-31T05:48:05;51.70;;;20.92;;
56181;SDS011;51963;46.052;14.544;2022-10-31T05:50:49;58.33;;;19.52;;
56181;SDS011;51963;46.052;14.544;2022-10-31T05:53:15;31.90;;;17.17;;
56181;SDS011;51963;46.052;14.544;2022-10-31T05:55:42;38.97;;;15.38;;
56181;SDS011;51963;46.052;14.544;2022-10-31T05:58:13;26.17;;;13.93;;
56181;SDS011;51963;46.052;14.544;2022-10-31T06:00:46;25.23;;;13.10;;
56181;SDS011;51963;46.052;14.544;2022-10-31T06:03:12;26.83;;;12.73;;
56181;SDS011;51963;46.052;14.544;2022-10-31T06:05:56;20.38;;;12.52;;
56181;SDS011;51963;46.052;14.544;2022-10-31T06:08:35;19.23;;;11.32;;
56181;SDS011;51963;46.052;14.544;2022-10-31T06:11:05;22.33;;;12.20;;
56181;SDS011;51963;46.052;14.544;2022-10-31T06:13:49;19.45;;;11.68;;
56181;SDS011;51963;46.052;14.544;2022-10-31T06:16:20;21.58;;;12.50;;
56181;SDS011;51963;46.052;14.544;2022-10-31T06:18:46;19.27;;;12.40;;
56181;SDS011;51963;46.052;14.544;2022-10-31T06:21:13;23.98;;;12.68;;
56181;SDS011;51963;46.052;14.544;2022-10-31T06:23:38;21.05;;;11.40;;
56181;SDS011;51963;46.052;14.544;2022-10-31T06:26:23;40.17;;;12.10;;
56181;SDS011;51963;46.052;14.544;2022-10-31T06:28:49;46.25;;;13.05;;
56181;SDS011;51963;46.052;14.544;2022-10-31T06:31:35;34.50;;;13.98;;
56181;SDS011;51963;46.052;14.544;2022-10-31T06:34:00;22.15;;;12.73;;
56181;SDS011;51963;46.052;14.544;2022-10-31T06:36:26;16.25;;;10.85;;
56181;SDS011;51963;46.052;14.544;2022-10-31T06:38:52;15.90;;;11.05;;
56181;SDS011;51963;46.052;14.544;2022-10-31T06:41:21;23.85;;;11.05;;
56181;SDS011;51963;46.052;14.544;2022-10-31T06:43:48;17.30;;;10.65;;
56181;SDS011;51963;46.052;14.544;2022-10-31T06:46:36;17.13;;;10.38;;
56181;SDS011;51963;46.052;14.544;2022-10-31T06:49:20;14.25;;;9.60;;
56181;SDS011;51963;46.052;14.544;2022-10-31T06:51:52;13.40;;;8.93;;
56181;SDS011;51963;46.052;14.544;2022-10-31T06:54:20;17.83;;;9.75;;
56181;SDS011;51963;46.052;14.544;2022-10-31T06:56:47;25.83;;;10.40;;
56181;SDS011;51963;46.052;14.544;2022-10-31T06:59:13;28.35;;;11.07;;
56181;SDS011;51963;46.052;14.544;2022-10-31T07:02:09;20.10;;;9.70;;
56181;SDS011;51963;46.052;14.544;2022-10-31T07:04:36;15.52;;;9.05;;
56181;SDS011;51963;46.052;14.544;2022-10-31T07:07:02;23.15;;;9.10;;
56181;SDS011;51963;46.052;14.544;2022-10-31T07:09:29;15.48;;;10.20;;
56181;SDS011;51963;46.052;14.544;2022-10-31T07:11:58;17.63;;;9.45;;
56181;SDS011;51963;46.052;14.544;2022-10-31T07:14:23;24.63;;;9.80;;
56181;SDS011;51963;46.052;14.544;2022-10-31T07:16:49;14.10;;;9.98;;
56181;SDS011;51963;46.052;14.544;2022-10-31T07:19:17;14.07;;;9.77;;
56181;SDS011;51963;46.052;14.544;2022-10-31T07:21:43;15.35;;;8.80;;
56181;SDS011;51963;46.052;14.544;2022-10-31T07:24:12;24.17;;;9.93;;
56181;SDS011;51963;46.052;14.544;2022-10-31T07:29:08;19.83;;;8.80;;
56181;SDS011;51963;46.052;14.544;2022-10-31T07:31:34;15.35;;;9.35;;
56181;SDS011;51963;46.052;14.544;2022-10-31T07:34:07;25.63;;;9.25;;
56181;SDS011;51963;46.052;14.544;2022-10-31T07:36:51;15.10;;;9.13;;
56181;SDS011;51963;46.052;14.544;2022-10-31T07:39:18;30.92;;;9.57;;
56181;SDS011;51963;46.052;14.544;2022-10-31T07:41:43;15.38;;;8.77;;
56181;SDS011;51963;46.052;14.544;2022-10-31T07:44:09;16.77;;;8.88;;
56181;SDS011;51963;46.052;14.544;2022-10-31T07:47:04;18.30;;;8.55;;
56181;SDS011;51963;46.052;14.544;2022-10-31T07:50:01;13.23;;;9.02;;
56181;SDS011;51963;46.052;14.544;2022-10-31T07:52:45;14.95;;;10.30;;
56181;SDS011;51963;46.052;14.544;2022-10-31T07:55:34;16.80;;;7.88;;
56181;SDS011;51963;46.052;14.544;2022-10-31T07:58:01;14.25;;;8.10;;
56181;SDS011;51963;46.052;14.544;2022-10-31T08:00:29;19.30;;;8.50;;
56181;SDS011;51963;46.052;14.544;2022-10-31T08:02:57;17.33;;;8.82;;
56181;SDS011;51963;46.052;14.544;2022-10-31T08:05:41;15.27;;;9.35;;
56181;SDS011;51963;46.052;14.544;2022-10-31T08:08:30;15.68;;;9.15;;
56181;SDS011;51963;46.052;14.544;2022-10-31T08:10:55;14.02;;;8.68;;
56181;SDS011;51963;46.052;14.544;2022-10-31T08:13:23;14.52;;;9.18;;
56181;SDS011;51963;46.052;14.544;2022-10-31T08:15:50;13.68;;;8.23;;
56181;SDS011;51963;46.052;14.544;2022-10-31T08:18:21;17.42;;;9.40;;
56181;SDS011;51963;46.052;14.544;2022-10-31T08:20:49;15.30;;;9.67;;
56181;SDS011;51963;46.052;14.544;2022-10-31T08:23:15;13.52;;;9.80;;
56181;SDS011;51963;46.052;14.544;2022-10-31T08:25:42;15.25;;;9.35;;
56181;SDS011;51963;46.052;14.544;2022-10-31T08:28:08;14.95;;;10.32;;
56181;SDS011;51963;46.052;14.544;2022-10-31T08:30:37;15.90;;;9.18;;
56181;SDS011;51963;46.052;14.544;2022-10-31T08:33:22;11.88;;;8.85;;
56181;SDS011;51963;46.052;14.544;2022-10-31T08:36:06;18.88;;;10.50;;
56181;SDS011;51963;46.052;14.544;2022-10-31T08:38:50;14.80;;;9.23;;
56181;SDS011;51963;46.052;14.544;2022-10-31T08:41:16;14.35;;;10.32;;
56181;SDS011;51963;46.052;14.544;2022-10-31T08:43:42;14.15;;;9.95;;
56181;SDS011;51963;46.052;14.544;2022-10-31T08:46:08;16.63;;;9.40;;
56181;SDS011;51963;46.052;14.544;2022-10-31T08:48:33;16.75;;;10.88;;
56181;SDS011;51963;46.052;14.544;2022-10-31T08:51:01;18.40;;;10.90;;
56181;SDS011;51963;46.052;14.544;2022-10-31T08:53:28;20.98;;;12.65;;
56181;SDS011;51963;46.052;14.544;2022-10-31T08:56:17;23.58;;;13.50;;
56181;SDS011;51963;46.052;14.544;2022-10-31T08:58:43;22.65;;;14.10;;
56181;SDS011;51963;46.052;14.544;2022-10-31T09:01:09;24.83;;;14.25;;
56181;SDS011;51963;46.052;14.544;2022-10-31T09:03:35;25.73;;;14.40;;
56181;SDS011;51963;46.052;14.544;2022-10-31T09:06:01;23.25;;;13.40;;
56181;SDS011;51963;46.052;14.544;2022-10-31T09:08:29;22.73;;;15.03;;
56181;SDS011;51963;46.052;14.544;2022-10-31T09:10:56;25.23;;;15.32;;
56181;SDS011;51963;46.052;14.544;2022-10-31T09:13:42;21.83;;;13.75;;
56181;SDS011;51963;46.052;14.544;2022-10-31T09:16:31;16.80;;;11.70;;
56181;SDS011;51963;46.052;14.544;2022-10-31T09:18:57;18.33;;;10.90;;
56181;SDS011;51963;46.052;14.544;2022-10-31T09:21:23;18.58;;;10.13;;
56181;SDS011;51963;46.052;14.544;2022-10-31T09:23:49;18.27;;;11.00;;
56181;SDS011;51963;46.052;14.544;2022-10-31T09:26:14;17.95;;;10.77;;
56181;SDS011;51963;46.052;14.544;2022-10-31T09:29:00;17.05;;;10.65;;
56181;SDS011;51963;46.052;14.544;2022-10-31T09:31:28;14.90;;;10.10;;
56181;SDS011;51963;46.052;14.544;2022-10-31T09:33:54;18.25;;;11.18;;
56181;SDS011;51963;46.052;14.544;2022-10-31T09:36:35;17.45;;;10.68;;
56181;SDS011;51963;46.052;14.544;2022-10-31T09:39:03;20.20;;;10.90;;
56181;SDS011;51963;46.052;14.544;2022-10-31T09:52:28;15.43;;;10.38;;
56181;SDS011;51963;46.052;14.544;2022-10-31T09:55:15;15.00;;;9.98;;
56181;SDS011;51963;46.052;14.544;2022-10-31T09:57:45;16.45;;;10.10;;
56181;SDS011;51963;46.052;14.544;2022-10-31T10:00:16;15.73;;;9.75;;
56181;SDS011;51963;46.052;14.544;2022-10-31T10:08:43;19.35;;;11.43;;
56181;SDS011;51963;46.052;14.544;2022-10-31T10:22:23;16.95;;;9.68;;
56181;SDS011;51963;46.052;14.544;2022-10-31T10:27:49;16.25;;;8.93;;
56181;SDS011;51963;46.052;14.544;2022-10-31T10:30:17;13.07;;;9.50;;
56181;SDS011;51963;46.052;14.544;2022-10-31T10:32:58;14.82;;;7.95;;
56181;SDS011;51963;46.052;14.544;2022-10-31T10:40:48;14.27;;;8.63;;
56181;SDS011;51963;46.052;14.544;2022-10-31T10:45:53;14.02;;;8.38;;
56181;SDS011;51963;46.052;14.544;2022-10-31T10:48:53;14.63;;;9.02;;
56181;SDS011;51963;46.052;14.544;2022-10-31T10:51:21;14.18;;;9.35;;
56181;SDS011;51963;46.052;14.544;2022-10-31T10:53:59;13.55;;;9.40;;
56181;SDS011;51963;46.052;14.544;2022-10-31T10:59:27;13.88;;;10.70;;
56181;SDS011;51963;46.052;14.544;2022-10-31T11:01:52;12.90;;;9.63;;
56181;SDS011;51963;46.052;14.544;2022-10-31T11:04:24;12.80;;;9.90;;
56181;SDS011;51963;46.052;14.544;2022-10-31T11:07:03;16.53;;;9.93;;
56181;SDS011;51963;46.052;14.544;2022-10-31T11:09:34;13.98;;;9.95;;
56181;SDS011;51963;46.052;14.544;2022-10-31T11:12:05;13.30;;;9.23;;
56181;SDS011;51963;46.052;14.544;2022-10-31T11:14:53;11.93;;;9.32;;
56181;SDS011;51963;46.052;14.544;2022-10-31T11:17:34;12.63;;;8.38;;
56181;SDS011;51963;46.052;14.544;2022-10-31T11:22:37;10.40;;;7.05;;
56181;SDS011;51963;46.052;14.544;2022-10-31T11:27:44;10.68;;;5.07;;
56181;SDS011;51963;46.052;14.544;2022-10-31T11:30:23;8.50;;;5.28;;
56181;SDS011;51963;46.052;14.544;2022-10-31T11:32:49;11.07;;;5.90;;
56181;SDS011;51963;46.052;14.544;2022-10-31T11:35:19;12.73;;;5.85;;
56181;SDS011;51963;46.052;14.544;2022-10-31T11:37:47;14.07;;;5.35;;
56181;SDS011;51963;46.052;14.544;2022-10-31T11:40:20;17.38;;;5.05;;
56181;SDS011;51963;46.052;14.544;2022-10-31T11:42:48;11.23;;;5.25;;
56181;SDS011;51963;46.052;14.544;2022-10-31T11:45:37;9.18;;;5.50;;
56181;SDS011;51963;46.052;14.544;2022-10-31T11:48:02;7.20;;;5.27;;
56181;SDS011;51963;46.052;14.544;2022-10-31T11:50:42;11.95;;;4.93;;
56181;SDS011;51963;46.052;14.544;2022-10-31T11:53:18;11.30;;;5.43;;
56181;SDS011;51963;46.052;14.544;2022-10-31T11:55:46;9.88;;;5.35;;
56181;SDS011;51963;46.052;14.544;2022-10-31T11:58:20;11.55;;;5.57;;
56181;SDS011;51963;46.052;14.544;2022-10-31T12:00:48;13.73;;;5.30;;
56181;SDS011;51963;46.052;14.544;2022-10-31T12:08:39;12.95;;;5.63;;
56181;SDS011;51963;46.052;14.544;2022-10-31T12:16:28;10.13;;;5.38;;
56181;SDS011;51963;46.052;14.544;2022-10-31T12:19:33;9.38;;;6.05;;
56181;SDS011;51963;46.052;14.544;2022-10-31T12:22:44;9.82;;;5.50;;
56181;SDS011;51963;46.052;14.544;2022-10-31T12:27:51;14.50;;;5.53;;
56181;SDS011;51963;46.052;14.544;2022-10-31T12:41:46;11.77;;;4.15;;
56181;SDS011;51963;46.052;14.544;2022-10-31T12:45:11;8.05;;;4.40;;
56181;SDS011;51963;46.052;14.544;2022-10-31T12:53:27;10.20;;;4.13;;
56181;SDS011;51963;46.052;14.544;2022-10-31T12:58:40;9.80;;;4.13;;
56181;SDS011;51963;46.052;14.544;2022-10-31T13:01:16;10.38;;;4.28;;
56181;SDS011;51963;46.052;14.544;2022-10-31T13:06:36;9.27;;;4.50;;
56181;SDS011;51963;46.052;14.544;2022-10-31T13:09:06;8.77;;;4.25;;
56181;SDS011;51963;46.052;14.544;2022-10-31T13:11:40;8.65;;;4.78;;
56181;SDS011;51963;46.052;14.544;2022-10-31T13:17:34;8.10;;;4.25;;
56181;SDS011;51963;46.052;14.544;2022-10-31T13:20:13;9.43;;;4.28;;
56181;SDS011;51963;46.052;14.544;2022-10-31T13:22:45;7.05;;;4.20;;
56181;SDS011;51963;46.052;14.544;2022-10-31T13:25:15;9.65;;;4.10;;
56181;SDS011;51963;46.052;14.544;2022-10-31T13:27:53;12.20;;;4.40;;
56181;SDS011;51963;46.052;14.544;2022-10-31T13:30:24;10.88;;;4.45;;
56181;SDS011;51963;46.052;14.544;2022-10-31T13:35:30;12.87;;;4.30;;
56181;SDS011;51963;46.052;14.544;2022-10-31T13:40:47;10.93;;;4.47;;
56181;SDS011;51963;46.052;14.544;2022-10-31T13:46:00;14.07;;;4.70;;
56181;SDS011;51963;46.052;14.544;2022-10-31T13:48:39;11.50;;;5.05;;
56181;SDS011;51963;46.052;14.544;2022-10-31T13:51:09;8.52;;;4.40;;
56181;SDS011;51963;46.052;14.544;2022-10-31T13:56:13;9.10;;;4.85;;
56181;SDS011;51963;46.052;14.544;2022-10-31T13:58:55;8.65;;;4.53;;
56181;SDS011;51963;46.052;14.544;2022-10-31T14:01:28;12.15;;;4.68;;
56181;SDS011;51963;46.052;14.544;2022-10-31T14:03:56;9.23;;;4.47;;
56181;SDS011;51963;46.052;14.544;2022-10-31T14:06:39;12.05;;;4.70;;
56181;SDS011;51963;46.052;14.544;2022-10-31T14:09:22;10.55;;;5.03;;
56181;SDS011;51963;46.052;14.544;2022-10-31T14:11:53;7.93;;;5.03;;
56181;SDS011;51963;46.052;14.544;2022-10-31T14:14:21;12.52;;;5.03;;
56181;SDS011;51963;46.052;14.544;2022-10-31T14:16:54;9.25;;;5.30;;
56181;SDS011;51963;46.052;14.544;2022-10-31T14:19:22;10.80;;;5.03;;
56181;SDS011;51963;46.052;14.544;2022-10-31T14:21:48;8.63;;;5.10;;
56181;SDS011;51963;46.052;14.544;2022-10-31T14:29:24;11.95;;;5.35;;
56181;SDS011;51963;46.052;14.544;2022-10-31T14:34:30;13.63;;;6.57;;
56181;SDS011;51963;46.052;14.544;2022-10-31T14:42:32;14.10;;;5.35;;
56181;SDS011;51963;46.052;14.544;2022-10-31T14:50:59;9.10;;;5.40;;
56181;SDS011;51963;46.052;14.544;2022-10-31T14:53:31;12.15;;;5.47;;
56181;SDS011;51963;46.052;14.544;2022-10-31T14:55:59;12.05;;;5.95;;
56181;SDS011;51963;46.052;14.544;2022-10-31T14:58:42;14.20;;;7.20;;
56181;SDS011;51963;46.052;14.544;2022-10-31T15:01:30;19.17;;;7.30;;
56181;SDS011;51963;46.052;14.544;2022-10-31T15:04:18;11.35;;;6.72;;
56181;SDS011;51963;46.052;14.544;2022-10-31T15:06:48;14.75;;;6.80;;
56181;SDS011;51963;46.052;14.544;2022-10-31T15:09:23;13.85;;;6.65;;
56181;SDS011;51963;46.052;14.544;2022-10-31T15:11:51;16.70;;;6.60;;
56181;SDS011;51963;46.052;14.544;2022-10-31T15:14:21;13.80;;;6.72;;
56181;SDS011;51963;46.052;14.544;2022-10-31T15:16:49;16.80;;;6.82;;
56181;SDS011;51963;46.052;14.544;2022-10-31T15:19:16;13.18;;;6.78;;
56181;SDS011;51963;46.052;14.544;2022-10-31T15:21:52;16.88;;;7.00;;
56181;SDS011;51963;46.052;14.544;2022-10-31T15:26:50;16.65;;;7.10;;
56181;SDS011;51963;46.052;14.544;2022-10-31T15:29:18;15.45;;;7.40;;
56181;SDS011;51963;46.052;14.544;2022-10-31T15:34:22;11.88;;;6.70;;
56181;SDS011;51963;46.052;14.544;2022-10-31T15:36:54;13.45;;;7.60;;
56181;SDS011;51963;46.052;14.544;2022-10-31T15:39:20;16.83;;;7.05;;
56181;SDS011;51963;46.052;14.544;2022-10-31T15:41:53;10.98;;;7.03;;
56181;SDS011;51963;46.052;14.544;2022-10-31T15:44:24;21.00;;;8.45;;
56181;SDS011;51963;46.052;14.544;2022-10-31T15:47:00;22.48;;;7.50;;
56181;SDS011;51963;46.052;14.544;2022-10-31T15:49:38;14.25;;;8.07;;
56181;SDS011;51963;46.052;14.544;2022-10-31T15:54:56;15.88;;;7.90;;
56181;SDS011;51963;46.052;14.544;2022-10-31T15:57:26;21.17;;;8.55;;
56181;SDS011;51963;46.052;14.544;2022-10-31T15:59:52;22.85;;;8.70;;
56181;SDS011;51963;46.052;14.544;2022-10-31T16:02:23;18.10;;;8.57;;
56181;SDS011;51963;46.052;14.544;2022-10-31T16:04:58;21.55;;;9.85;;
56181;SDS011;51963;46.052;14.544;2022-10-31T16:07:26;17.10;;;9.10;;
56181;SDS011;51963;46.052;14.544;2022-10-31T16:09:59;16.75;;;9.20;;
56181;SDS011;51963;46.052;14.544;2022-10-31T16:12:36;16.83;;;9.50;;
56181;SDS011;51963;46.052;14.544;2022-10-31T16:15:13;18.98;;;9.65;;
56181;SDS011;51963;46.052;14.544;2022-10-31T16:17:41;15.48;;;9.15;;
56181;SDS011;51963;46.052;14.544;2022-10-31T16:20:23;21.65;;;10.05;;
56181;SDS011;51963;46.052;14.544;2022-10-31T16:22:52;19.15;;;9.68;;
56181;SDS011;51963;46.052;14.544;2022-10-31T16:25:26;20.65;;;9.55;;
56181;SDS011;51963;46.052;14.544;2022-10-31T16:27:57;20.88;;;9.82;;
56181;SDS011;51963;46.052;14.544;2022-10-31T16:30:40;21.77;;;9.88;;
56181;SDS011;51963;46.052;14.544;2022-10-31T16:35:52;18.05;;;8.88;;
56181;SDS011;51963;46.052;14.544;2022-10-31T16:38:19;18.52;;;9.27;;
56181;SDS011;51963;46.052;14.544;2022-10-31T16:40:47;20.67;;;10.23;;
56181;SDS011;51963;46.052;14.544;2022-10-31T16:43:15;18.17;;;9.70;;
56181;SDS011;51963;46.052;14.544;2022-10-31T16:45:50;18.63;;;10.00;;
56181;SDS011;51963;46.052;14.544;2022-10-31T16:48:18;17.63;;;9.95;;
56181;SDS011;51963;46.052;14.544;2022-10-31T16:50:48;21.10;;;11.00;;
56181;SDS011;51963;46.052;14.544;2022-10-31T16:53:15;22.92;;;11.30;;
56181;SDS011;51963;46.052;14.544;2022-10-31T16:58:21;23.52;;;12.63;;
56181;SDS011;51963;46.052;14.544;2022-10-31T17:00:50;23.75;;;12.05;;
56181;SDS011;51963;46.052;14.544;2022-10-31T17:03:22;19.88;;;12.38;;
56181;SDS011;51963;46.052;14.544;2022-10-31T17:05:51;17.90;;;10.98;;
56181;SDS011;51963;46.052;14.544;2022-10-31T17:08:17;22.48;;;12.38;;
56181;SDS011;51963;46.052;14.544;2022-10-31T17:10:43;22.60;;;11.13;;
56181;SDS011;51963;46.052;14.544;2022-10-31T17:13:18;22.20;;;11.88;;
56181;SDS011;51963;46.052;14.544;2022-10-31T17:15:47;20.83;;;11.57;;
56181;SDS011;51963;46.052;14.544;2022-10-31T17:18:19;24.60;;;12.70;;
56181;SDS011;51963;46.052;14.544;2022-10-31T17:20:45;23.20;;;13.90;;
56181;SDS011;51963;46.052;14.544;2022-10-31T17:23:12;21.65;;;12.38;;
56181;SDS011;51963;46.052;14.544;2022-10-31T17:25:39;23.63;;;12.40;;
56181;SDS011;51963;46.052;14.544;2022-10-31T17:28:06;24.38;;;12.25;;
56181;SDS011;51963;46.052;14.544;2022-10-31T17:30:32;22.30;;;12.13;;